Time;durP1;ratioP1;P1;durP2;ratioP2;P2;SDS_P1;SDS_P2;PMS_P1;PMS_P2;Temp;Humidity;BMP_temperature;BMP_pressure;BME280_temperature;BME280_humidity;BME280_pressure;Samples;Min_cycle;Max_cycle;Signal;HPM_P1;HPM_P2
2021/07/10 00:01:52;;;;;;;6.28;2.90;;;;;;;;;;5069440;28;20017;-69
2021/07/10 00:04:18;;;;;;;6.05;2.80;;;;;;;;;;5069861;28;20043;-69
2021/07/10 00:06:45;;;;;;;4.90;2.38;;;;;;;;;;5067805;28;20386;-69
2021/07/10 00:09:11;;;;;;;5.53;3.13;;;;;;;;;;5068283;28;20059;-69
2021/07/10 00:11:37;;;;;;;5.65;3.17;;;;;;;;;;5069456;28;20029;-69
2021/07/10 00:14:03;;;;;;;3.40;2.30;;;;;;;;;;5069042;28;20024;-69
2021/07/10 00:16:30;;;;;;;4.53;2.75;;;;;;;;;;5068113;28;20032;-69
2021/07/10 00:18:56;;;;;;;4.07;2.33;;;;;;;;;;5069370;28;20043;-70
2021/07/10 00:21:22;;;;;;;3.67;2.42;;;;;;;;;;5069060;28;20024;-69
2021/07/10 00:23:48;;;;;;;5.82;2.95;;;;;;;;;;5068164;28;20078;-69
2021/07/10 00:26:14;;;;;;;4.30;2.53;;;;;;;;;;5069105;28;20041;-69
2021/07/10 00:28:41;;;;;;;8.88;3.05;;;;;;;;;;5067409;28;20086;-69
2021/07/10 00:31:26;;;;;;;4.15;2.63;;;;;;;;;;5130919;27;20380;-68
2021/07/10 00:33:52;;;;;;;4.78;2.63;;;;;;;;;;5130975;28;20024;-68
2021/07/10 00:36:19;;;;;;;5.03;3.20;;;;;;;;;;5130737;28;20019;-68
2021/07/10 00:38:45;;;;;;;5.85;3.25;;;;;;;;;;5130912;28;20498;-68
2021/07/10 00:41:11;;;;;;;5.30;3.50;;;;;;;;;;5112525;28;20110;-68
2021/07/10 00:43:38;;;;;;;8.10;3.58;;;;;;;;;;5130583;28;20046;-68
2021/07/10 00:46:53;;;;;;;8.43;3.63;;;;;;;;;;5069905;28;20399;-67
2021/07/10 00:49:19;;;;;;;7.93;3.38;;;;;;;;;;5068285;28;20047;-68
2021/07/10 00:52:07;;;;;;;7.10;3.72;;;;;;;;;;5110421;27;20389;-67
2021/07/10 00:54:34;;;;;;;8.88;3.50;;;;;;;;;;5110390;28;20023;-69
2021/07/10 00:57:03;;;;;;;6.85;3.67;;;;;;;;;;5108726;28;20023;-68
2021/07/10 00:59:29;;;;;;;6.38;3.20;;;;;;;;;;5110497;28;20028;-69
2021/07/10 01:01:56;;;;;;;4.10;2.58;;;;;;;;;;5110567;28;20032;-69
2021/07/10 01:04:23;;;;;;;4.90;2.92;;;;;;;;;;5110019;28;20016;-69
2021/07/10 01:06:49;;;;;;;5.30;3.47;;;;;;;;;;5110269;28;20027;-70
2021/07/10 01:09:15;;;;;;;5.07;3.20;;;;;;;;;;5110227;28;20070;-69
2021/07/10 01:11:42;;;;;;;7.20;3.42;;;;;;;;;;5109788;28;20032;-69
2021/07/10 01:14:08;;;;;;;6.80;3.80;;;;;;;;;;5108869;28;20319;-69
2021/07/10 01:18:11;;;;;;;5.85;3.75;;;;;;;;;;5110203;27;20393;-68
2021/07/10 01:23:36;;;;;;;10.25;4.15;;;;;;;;;;5110601;27;20900;-67
2021/07/10 01:26:02;;;;;;;5.40;2.95;;;;;;;;;;5108790;28;20119;-67
2021/07/10 01:28:28;;;;;;;5.25;3.30;;;;;;;;;;5110442;28;20027;-67
2021/07/10 01:32:32;;;;;;;6.03;3.85;;;;;;;;;;5069546;28;20919;-67
2021/07/10 01:34:58;;;;;;;5.82;3.50;;;;;;;;;;5068628;28;20116;-67
2021/07/10 01:37:24;;;;;;;6.07;3.60;;;;;;;;;;5069879;28;20028;-67
2021/07/10 01:39:51;;;;;;;6.07;3.25;;;;;;;;;;5069417;28;20082;-67
2021/07/10 01:43:50;;;;;;;4.78;2.85;;;;;;;;;;5070087;28;20391;-68
2021/07/10 01:48:07;;;;;;;4.15;2.80;;;;;;;;;;5110474;27;20397;-68
2021/07/10 01:50:33;;;;;;;7.13;3.25;;;;;;;;;;5110375;28;20028;-68
2021/07/10 01:52:59;;;;;;;4.40;2.60;;;;;;;;;;5110000;28;20024;-68
2021/07/10 01:55:25;;;;;;;5.88;3.10;;;;;;;;;;5110386;28;20031;-68
2021/07/10 01:57:52;;;;;;;5.20;2.80;;;;;;;;;;5108982;28;20020;-68
2021/07/10 02:00:20;;;;;;;4.68;3.08;;;;;;;;;;5110169;28;20031;-68
2021/07/10 02:02:47;;;;;;;6.05;3.63;;;;;;;;;;5110406;28;20024;-68
2021/07/10 02:06:40;;;;;;;6.22;3.50;;;;;;;;;;5110219;27;20405;-69
2021/07/10 02:09:06;;;;;;;4.72;3.00;;;;;;;;;;5110503;28;20074;-67
2021/07/10 02:11:32;;;;;;;4.53;3.10;;;;;;;;;;5110428;28;20059;-67
2021/07/10 02:13:58;;;;;;;4.82;2.90;;;;;;;;;;5110055;28;20024;-67
2021/07/10 02:17:48;;;;;;;4.78;2.90;;;;;;;;;;5110442;27;20511;-67
2021/07/10 02:20:15;;;;;;;6.60;3.38;;;;;;;;;;5110076;28;20044;-67
2021/07/10 02:22:42;;;;;;;5.85;3.72;;;;;;;;;;5110537;28;20073;-69
2021/07/10 02:25:09;;;;;;;5.47;2.80;;;;;;;;;;5109368;28;20028;-67
2021/07/10 02:27:36;;;;;;;4.60;3.00;;;;;;;;;;5109950;28;20552;-68
2021/07/10 02:31:29;;;;;;;6.68;3.65;;;;;;;;;;5110453;27;20416;-67
2021/07/10 02:33:55;;;;;;;5.82;3.28;;;;;;;;;;5110494;28;20035;-67
2021/07/10 02:36:22;;;;;;;6.90;3.47;;;;;;;;;;5110017;28;20077;-69
2021/07/10 02:38:48;;;;;;;4.85;3.00;;;;;;;;;;5110438;28;20384;-69
2021/07/10 02:41:15;;;;;;;6.20;3.72;;;;;;;;;;5110245;28;20024;-69
2021/07/10 02:43:41;;;;;;;4.78;2.92;;;;;;;;;;5110087;28;20035;-69
2021/07/10 02:46:08;;;;;;;7.38;4.55;;;;;;;;;;5110449;28;20081;-69
2021/07/10 02:48:35;;;;;;;4.90;3.28;;;;;;;;;;5109811;28;20123;-69
2021/07/10 02:51:01;;;;;;;6.93;3.90;;;;;;;;;;5110126;28;20032;-69
2021/07/10 02:53:27;;;;;;;10.50;3.83;;;;;;;;;;5110069;28;20024;-69
2021/07/10 02:55:53;;;;;;;5.97;3.55;;;;;;;;;;5109761;28;20094;-69
2021/07/10 02:58:20;;;;;;;5.55;3.30;;;;;;;;;;5125807;28;20435;-69
2021/07/10 03:00:46;;;;;;;4.75;3.25;;;;;;;;;;5125761;28;20024;-69
2021/07/10 03:03:38;;;;;;;6.32;4.05;;;;;;;;;;5110347;27;20392;-67
2021/07/10 03:08:20;;;;;;;10.40;3.42;;;;;;;;;;5110339;27;20375;-67
2021/07/10 03:10:47;;;;;;;6.75;3.10;;;;;;;;;;5109963;28;20028;-67
2021/07/10 03:13:14;;;;;;;5.32;3.28;;;;;;;;;;5110186;28;20023;-69
2021/07/10 03:15:40;;;;;;;5.65;3.40;;;;;;;;;;5110449;28;20099;-68
2021/07/10 03:18:07;;;;;;;5.45;3.30;;;;;;;;;;5109834;28;20012;-68
2021/07/10 03:20:33;;;;;;;9.60;3.58;;;;;;;;;;5110295;28;20028;-68
2021/07/10 03:22:59;;;;;;;5.43;3.45;;;;;;;;;;5110245;28;20031;-68
2021/07/10 03:25:25;;;;;;;9.15;4.07;;;;;;;;;;5091783;28;20066;-68
2021/07/10 03:27:53;;;;;;;6.30;3.28;;;;;;;;;;5110004;28;20472;-68
2021/07/10 03:30:20;;;;;;;5.82;2.95;;;;;;;;;;5110098;28;20091;-68
2021/07/10 03:32:47;;;;;;;7.25;3.70;;;;;;;;;;5109580;28;20433;-68
2021/07/10 03:36:38;;;;;;;7.15;3.33;;;;;;;;;;5110569;27;20513;-67
2021/07/10 03:39:05;;;;;;;6.53;3.10;;;;;;;;;;5110085;28;20028;-67
2021/07/10 03:41:31;;;;;;;7.72;3.92;;;;;;;;;;5110432;28;20016;-67
2021/07/10 03:43:57;;;;;;;6.68;3.53;;;;;;;;;;5110612;28;20047;-69
2021/07/10 03:46:23;;;;;;;6.88;3.83;;;;;;;;;;5110072;28;20522;-67
2021/07/10 03:48:49;;;;;;;7.30;3.95;;;;;;;;;;5110355;28;20070;-67
2021/07/10 03:51:16;;;;;;;6.38;3.55;;;;;;;;;;5110331;28;20031;-67
2021/07/10 03:54:02;;;;;;;6.00;3.45;;;;;;;;;;5069663;28;20922;-68
2021/07/10 03:56:28;;;;;;;7.32;3.63;;;;;;;;;;5069898;28;20051;-68
2021/07/10 03:59:17;;;;;;;5.40;3.10;;;;;;;;;;5110287;27;21040;-68
2021/07/10 04:01:45;;;;;;;5.90;3.67;;;;;;;;;;5110468;28;20476;-68
2021/07/10 04:04:12;;;;;;;5.07;2.70;;;;;;;;;;5110649;28;20480;-69
2021/07/10 04:06:38;;;;;;;5.38;3.28;;;;;;;;;;5110165;28;20532;-68
2021/07/10 04:09:04;;;;;;;5.30;2.97;;;;;;;;;;5110292;28;20526;-68
2021/07/10 04:11:31;;;;;;;9.95;4.40;;;;;;;;;;5110304;28;20028;-68
2021/07/10 04:13:57;;;;;;;6.93;3.80;;;;;;;;;;5109775;28;20547;-69
2021/07/10 04:16:23;;;;;;;5.80;3.95;;;;;;;;;;5110155;28;20391;-69
2021/07/10 04:21:28;;;;;;;6.20;3.42;;;;;;;;;;5110125;27;20931;-69
2021/07/10 04:23:54;;;;;;;5.38;3.67;;;;;;;;;;5126524;28;20032;-68
2021/07/10 04:26:20;;;;;;;5.55;3.50;;;;;;;;;;5110562;28;20057;-68
2021/07/10 04:28:47;;;;;;;6.45;3.75;;;;;;;;;;5110077;28;20020;-69
2021/07/10 04:31:13;;;;;;;5.68;3.33;;;;;;;;;;5110304;28;20012;-69
2021/07/10 04:33:39;;;;;;;6.57;3.50;;;;;;;;;;5110315;28;20499;-71
2021/07/10 04:36:05;;;;;;;12.00;3.88;;;;;;;;;;5125701;28;20024;-70
2021/07/10 04:38:32;;;;;;;6.38;2.80;;;;;;;;;;5126059;28;20058;-70
2021/07/10 04:40:58;;;;;;;836.10;753.10;;;;;;;;;;5109741;28;20047;-69
2021/07/10 04:43:25;;;;;;;848.78;757.50;;;;;;;;;;5110236;28;20023;-68
2021/07/10 04:45:51;;;;;;;868.88;736.05;;;;;;;;;;5110310;28;20024;-68
2021/07/10 04:48:17;;;;;;;864.75;769.40;;;;;;;;;;5109724;28;20016;-69
2021/07/10 04:50:43;;;;;;;814.58;726.72;;;;;;;;;;5109948;28;20028;-70
2021/07/10 04:53:09;;;;;;;901.17;727.88;;;;;;;;;;5109990;28;20089;-69
2021/07/10 04:55:35;;;;;;;1008.80;757.47;;;;;;;;;;5109482;28;20383;-67
2021/07/10 04:58:02;;;;;;;994.92;742.83;;;;;;;;;;5109854;28;20016;-68
2021/07/10 05:00:29;;;;;;;1025.40;755.33;;;;;;;;;;5109680;28;20039;-67
2021/07/10 05:02:55;;;;;;;1040.70;778.63;;;;;;;;;;5109423;28;20039;-67
2021/07/10 05:05:21;;;;;;;1020.13;767.55;;;;;;;;;;5109948;28;20099;-68
2021/07/10 05:07:47;;;;;;;1003.55;745.20;;;;;;;;;;5108415;28;20020;-68
2021/07/10 05:10:14;;;;;;;1012.20;743.72;;;;;;;;;;5109266;28;20043;-68
2021/07/10 05:12:40;;;;;;;1002.45;763.45;;;;;;;;;;5108234;28;20051;-68
2021/07/10 05:15:07;;;;;;;1004.25;761.78;;;;;;;;;;5108158;28;20031;-68
2021/07/10 05:17:33;;;;;;;965.38;747.65;;;;;;;;;;5109028;28;20103;-68
2021/07/10 05:19:59;;;;;;;1022.92;728.60;;;;;;;;;;5109126;28;20523;-68
2021/07/10 05:22:26;;;;;;;1014.10;769.47;;;;;;;;;;5108022;28;20426;-68
2021/07/10 05:24:52;;;;;;;1002.65;734.42;;;;;;;;;;5109328;28;20403;-69
2021/07/10 05:27:34;;;;;;;960.42;750.30;;;;;;;;;;5110498;27;20453;-67
2021/07/10 05:31:40;;;;;;;990.42;755.95;;;;;;;;;;5172161;27;20643;-67
2021/07/10 05:34:06;;;;;;;980.95;761.63;;;;;;;;;;5151662;27;20563;-68
2021/07/10 05:36:32;;;;;;;984.17;780.70;;;;;;;;;;5151677;27;20134;-69
2021/07/10 05:38:59;;;;;;;988.40;754.83;;;;;;;;;;5151202;27;20025;-69
2021/07/10 05:41:26;;;;;;;987.05;770.88;;;;;;;;;;5133475;27;20114;-68
2021/07/10 05:43:52;;;;;;;999.72;776.17;;;;;;;;;;5151506;27;20019;-71
2021/07/10 05:46:18;;;;;;;985.67;746.95;;;;;;;;;;5150989;27;20026;-70
2021/07/10 05:48:45;;;;;;;984.03;771.88;;;;;;;;;;5132782;27;20056;-71
2021/07/10 05:51:11;;;;;;;984.65;759.25;;;;;;;;;;5151279;27;20031;-69
2021/07/10 05:53:37;;;;;;;983.10;754.97;;;;;;;;;;5150832;27;20075;-70
2021/07/10 05:56:03;;;;;;;999.42;763.63;;;;;;;;;;5151208;27;20031;-70
2021/07/10 05:58:30;;;;;;;999.88;764.95;;;;;;;;;;5132223;27;20011;-69
2021/07/10 06:00:56;;;;;;;994.97;795.22;;;;;;;;;;5151339;27;20392;-68
2021/07/10 06:03:22;;;;;;;1006.60;796.20;;;;;;;;;;5151542;27;20015;-70
2021/07/10 06:05:48;;;;;;;966.60;816.10;;;;;;;;;;5132112;27;20436;-70
2021/07/10 06:09:05;;;;;;;993.13;799.20;;;;;;;;;;5110620;27;20446;-71
2021/07/10 06:11:32;;;;;;;1026.03;796.17;;;;;;;;;;5110775;28;20024;-71
2021/07/10 06:14:15;;;;;;;966.40;810.22;;;;;;;;;;5110150;27;20123;-69
2021/07/10 06:16:41;;;;;;;1000.88;795.58;;;;;;;;;;5090152;28;20338;-71
2021/07/10 06:19:08;;;;;;;1025.35;785.50;;;;;;;;;;5088796;28;20020;-70
2021/07/10 06:21:34;;;;;;;1035.38;771.95;;;;;;;;;;5088512;28;20035;-70
2021/07/10 06:24:00;;;;;;;1025.63;802.38;;;;;;;;;;5089963;28;20103;-69
2021/07/10 06:28:34;;;;;;;1027.50;771.60;;;;;;;;;;5110099;27;20532;-68
2021/07/10 06:31:00;;;;;;;1028.47;811.25;;;;;;;;;;5109101;28;20036;-68
2021/07/10 06:33:26;;;;;;;1021.42;771.90;;;;;;;;;;5110390;28;20016;-69
2021/07/10 06:35:52;;;;;;;1031.13;804.67;;;;;;;;;;5110054;28;20024;-68
2021/07/10 06:38:18;;;;;;;928.15;788.00;;;;;;;;;;5109153;28;20028;-69
2021/07/10 06:40:44;;;;;;;1019.78;789.03;;;;;;;;;;5110101;28;20019;-68
2021/07/10 06:43:11;;;;;;;1032.00;787.58;;;;;;;;;;5109053;28;20475;-69
2021/07/10 06:45:37;;;;;;;1027.60;828.53;;;;;;;;;;5110246;28;20085;-69
2021/07/10 06:48:03;;;;;;;1028.88;786.38;;;;;;;;;;5109778;28;20035;-69
2021/07/10 06:50:30;;;;;;;1002.03;816.40;;;;;;;;;;5108865;28;20103;-69
2021/07/10 06:52:56;;;;;;;1015.10;788.88;;;;;;;;;;5110044;28;20026;-69
2021/07/10 06:55:23;;;;;;;1023.13;796.00;;;;;;;;;;5109667;28;20008;-70
2021/07/10 06:57:49;;;;;;;1020.83;796.13;;;;;;;;;;5110017;28;20035;-69
2021/07/10 07:00:16;;;;;;;1032.03;825.30;;;;;;;;;;5110136;28;20023;-69
2021/07/10 07:02:43;;;;;;;1038.38;792.47;;;;;;;;;;5109520;28;20028;-69
2021/07/10 07:05:10;;;;;;;1019.20;825.28;;;;;;;;;;5109759;28;20016;-70
2021/07/10 07:07:36;;;;;;;1031.05;798.83;;;;;;;;;;5109961;28;20031;-68
2021/07/10 07:10:04;;;;;;;1040.07;839.97;;;;;;;;;;5107934;28;20102;-69
2021/07/10 07:12:30;;;;;;;999.75;817.30;;;;;;;;;;5109723;28;20028;-70
2021/07/10 07:14:56;;;;;;;1028.45;819.65;;;;;;;;;;5109699;28;20028;-70
2021/07/10 07:17:23;;;;;;;1029.88;808.30;;;;;;;;;;5109257;28;20028;-69
2021/07/10 07:19:49;;;;;;;1031.10;834.88;;;;;;;;;;5109744;28;20030;-69
2021/07/10 07:22:15;;;;;;;1023.38;776.88;;;;;;;;;;5109490;28;20097;-69
2021/07/10 07:24:41;;;;;;;1027.25;788.25;;;;;;;;;;5109050;28;20019;-69
2021/07/10 07:27:07;;;;;;;1027.90;825.15;;;;;;;;;;5109176;28;20066;-69
2021/07/10 07:29:36;;;;;;;1025.13;799.53;;;;;;;;;;5109332;28;20107;-69
2021/07/10 07:32:02;;;;;;;1020.22;793.08;;;;;;;;;;5108847;28;20070;-69
2021/07/10 07:34:28;;;;;;;1024.00;843.90;;;;;;;;;;5109304;28;20506;-68
2021/07/10 07:36:55;;;;;;;1012.42;806.10;;;;;;;;;;5109037;28;20031;-69
2021/07/10 07:39:21;;;;;;;1014.63;859.67;;;;;;;;;;5097317;28;20022;-69
2021/07/10 07:41:49;;;;;;;1005.85;816.72;;;;;;;;;;5095539;28;20103;-70
2021/07/10 07:44:15;;;;;;;1024.10;853.50;;;;;;;;;;5093821;28;20093;-69
2021/07/10 07:46:41;;;;;;;1022.20;825.72;;;;;;;;;;5095234;28;20024;-69
2021/07/10 07:49:08;;;;;;;1013.67;830.58;;;;;;;;;;5095381;28;20050;-68
2021/07/10 07:51:34;;;;;;;1022.10;830.25;;;;;;;;;;5095278;28;20099;-69
2021/07/10 07:54:00;;;;;;;1021.50;858.75;;;;;;;;;;5095217;28;20506;-69
2021/07/10 07:56:26;;;;;;;1016.78;829.60;;;;;;;;;;5095226;28;20039;-69
2021/07/10 07:58:52;;;;;;;1009.45;828.78;;;;;;;;;;5094864;28;20270;-69
2021/07/10 08:01:19;;;;;;;1004.05;816.97;;;;;;;;;;5095234;28;20039;-73
2021/07/10 08:03:47;;;;;;;1004.08;832.30;;;;;;;;;;5095108;28;20353;-70
2021/07/10 08:06:13;;;;;;;996.63;856.13;;;;;;;;;;5094599;28;20511;-72
2021/07/10 08:08:40;;;;;;;1009.40;848.50;;;;;;;;;;5094984;28;20024;-68
2021/07/10 08:11:09;;;;;;;1000.03;872.55;;;;;;;;;;5094988;28;20031;-69
2021/07/10 08:13:36;;;;;;;997.28;843.85;;;;;;;;;;5094546;28;20436;-69
2021/07/10 08:16:02;;;;;;;1005.33;865.60;;;;;;;;;;5095105;28;20078;-69
2021/07/10 08:18:29;;;;;;;1008.88;847.63;;;;;;;;;;5094960;28;20036;-69
2021/07/10 08:20:55;;;;;;;1012.10;846.67;;;;;;;;;;5094409;28;20080;-69
2021/07/10 08:23:21;;;;;;;1015.22;871.15;;;;;;;;;;5093514;28;20024;-70
2021/07/10 08:25:47;;;;;;;1009.42;867.53;;;;;;;;;;5094671;28;20024;-69
2021/07/10 08:28:14;;;;;;;989.67;834.45;;;;;;;;;;5092768;28;20056;-69
2021/07/10 08:30:40;;;;;;;969.10;854.85;;;;;;;;;;5094643;28;20034;-69
2021/07/10 08:33:06;;;;;;;995.35;842.08;;;;;;;;;;5094771;28;20016;-68
2021/07/10 08:35:32;;;;;;;972.40;847.65;;;;;;;;;;5094280;28;20023;-69
2021/07/10 08:37:59;;;;;;;981.88;867.13;;;;;;;;;;5094383;28;20024;-69
2021/07/10 08:40:25;;;;;;;970.90;862.88;;;;;;;;;;5094061;28;20028;-69
2021/07/10 08:42:52;;;;;;;981.78;848.53;;;;;;;;;;5094700;28;20423;-69
2021/07/10 08:45:18;;;;;;;956.83;831.53;;;;;;;;;;5094389;28;20095;-69
2021/07/10 08:47:45;;;;;;;984.97;874.22;;;;;;;;;;5093790;28;20036;-69
2021/07/10 08:50:12;;;;;;;998.85;857.60;;;;;;;;;;5093238;28;20025;-69
2021/07/10 08:52:39;;;;;;;1003.65;864.92;;;;;;;;;;5094211;28;20032;-69
2021/07/10 08:55:06;;;;;;;997.17;869.65;;;;;;;;;;5093972;28;20099;-70
2021/07/10 08:57:36;;;;;;;986.33;866.90;;;;;;;;;;5092802;28;20480;-68
2021/07/10 09:00:21;;;;;;;969.28;837.90;;;;;;;;;;5092816;28;20106;-68
2021/07/10 09:02:49;;;;;;;971.47;837.25;;;;;;;;;;5093647;28;20024;-68
2021/07/10 09:05:15;;;;;;;969.58;853.70;;;;;;;;;;5092880;28;20403;-69
2021/07/10 09:08:02;;;;;;;984.65;853.25;;;;;;;;;;5093923;28;20077;-69
2021/07/10 09:10:35;;;;;;;983.85;836.10;;;;;;;;;;5082789;28;20036;-69
2021/07/10 09:13:02;;;;;;;939.25;820.15;;;;;;;;;;5092534;28;20038;-70
2021/07/10 09:15:28;;;;;;;961.38;853.60;;;;;;;;;;5092273;28;20540;-68
2021/07/10 09:17:54;;;;;;;966.08;832.63;;;;;;;;;;5093843;28;20024;-69
2021/07/10 09:20:21;;;;;;;972.70;834.17;;;;;;;;;;5093640;28;20491;-69
2021/07/10 09:22:48;;;;;;;967.78;860.72;;;;;;;;;;5093136;28;20048;-69
2021/07/10 09:25:24;;;;;;;975.38;846.38;;;;;;;;;;5093604;28;20020;-68
2021/07/10 09:27:54;;;;;;;992.22;857.25;;;;;;;;;;5093162;28;20051;-69
2021/07/10 09:30:31;;;;;;;983.00;847.08;;;;;;;;;;5093055;28;20522;-69
2021/07/10 09:33:17;;;;;;;994.85;884.05;;;;;;;;;;5093787;28;20102;-69
2021/07/10 09:35:52;;;;;;;982.42;874.10;;;;;;;;;;5092533;28;20427;-69
2021/07/10 09:38:28;;;;;;;981.17;836.58;;;;;;;;;;5091800;28;20032;-69
2021/07/10 09:40:58;;;;;;;992.30;853.58;;;;;;;;;;5093291;28;20372;-69
2021/07/10 09:43:26;;;;;;;988.67;865.63;;;;;;;;;;5093252;28;20020;-69
2021/07/10 09:45:52;;;;;;;994.15;844.83;;;;;;;;;;5092754;28;20020;-69
2021/07/10 09:48:18;;;;;;;979.83;853.08;;;;;;;;;;5093008;28;20036;-68
2021/07/10 09:50:44;;;;;;;996.13;870.13;;;;;;;;;;5092938;28;20035;-68
2021/07/10 09:53:25;;;;;;;976.17;861.13;;;;;;;;;;5091909;28;20111;-69
2021/07/10 09:56:08;;;;;;;995.92;835.45;;;;;;;;;;5093015;28;20068;-69
2021/07/10 09:58:34;;;;;;;995.00;866.15;;;;;;;;;;5091340;28;20085;-69
2021/07/10 10:01:20;;;;;;;1012.53;820.13;;;;;;;;;;5092646;28;20032;-69
2021/07/10 10:03:46;;;;;;;1012.55;829.08;;;;;;;;;;5092776;28;20043;-69
2021/07/10 10:06:32;;;;;;;1002.53;828.10;;;;;;;;;;5091069;28;20496;-70
2021/07/10 10:08:59;;;;;;;1021.67;812.75;;;;;;;;;;5091538;28;20092;-69
2021/07/10 10:11:26;;;;;;;1012.70;838.40;;;;;;;;;;5092860;28;20119;-69
2021/07/10 10:13:56;;;;;;;1009.47;847.30;;;;;;;;;;5092709;28;20140;-70
2021/07/10 10:16:23;;;;;;;1057.30;867.92;;;;;;;;;;5091560;28;20357;-70
2021/07/10 10:18:50;;;;;;;1007.20;846.67;;;;;;;;;;5092315;28;20013;-69
2021/07/10 10:21:16;;;;;;;1046.53;872.42;;;;;;;;;;5092796;28;20025;-70
2021/07/10 10:23:42;;;;;;;1026.05;870.40;;;;;;;;;;5092638;28;20472;-69
2021/07/10 10:26:09;;;;;;;1011.85;864.30;;;;;;;;;;5090820;28;20390;-69
2021/07/10 10:28:35;;;;;;;1014.17;863.25;;;;;;;;;;5092626;28;20035;-69
2021/07/10 10:31:02;;;;;;;1048.65;838.55;;;;;;;;;;5092652;28;20022;-69
2021/07/10 10:33:29;;;;;;;1037.00;870.90;;;;;;;;;;5092550;28;20388;-69
2021/07/10 10:35:56;;;;;;;1038.72;875.15;;;;;;;;;;5092680;28;20564;-69
2021/07/10 10:38:23;;;;;;;1027.00;904.90;;;;;;;;;;5092538;28;20079;-70
2021/07/10 10:40:51;;;;;;;1004.47;891.40;;;;;;;;;;5092305;28;20040;-69
2021/07/10 10:43:18;;;;;;;1032.10;899.55;;;;;;;;;;5092410;28;20380;-70
2021/07/10 10:45:46;;;;;;;1031.63;900.25;;;;;;;;;;5092402;28;20508;-69
2021/07/10 10:48:16;;;;;;;1026.15;913.13;;;;;;;;;;5090716;28;20070;-72
2021/07/10 10:50:43;;;;;;;1038.43;925.33;;;;;;;;;;5092459;28;20020;-68
2021/07/10 10:53:19;;;;;;;1042.90;930.15;;;;;;;;;;5092607;28;20024;-69
2021/07/10 10:55:46;;;;;;;1063.10;947.80;;;;;;;;;;5092047;28;20020;-70
2021/07/10 10:58:22;;;;;;;6.70;4.13;;;;;;;;;;5091104;28;20107;-70
2021/07/10 11:00:59;;;;;;;8.77;3.78;;;;;;;;;;5091030;28;20020;-70
2021/07/10 11:03:34;;;;;;;7.30;3.95;;;;;;;;;;5091136;28;20020;-69
2021/07/10 11:06:00;;;;;;;7.65;3.85;;;;;;;;;;5091105;28;20037;-70
2021/07/10 11:08:31;;;;;;;5.68;3.70;;;;;;;;;;5091793;28;20111;-70
2021/07/10 11:10:57;;;;;;;7.43;3.58;;;;;;;;;;5090921;28;20017;-70
2021/07/10 11:13:26;;;;;;;5.93;3.78;;;;;;;;;;5093067;28;20149;-70
2021/07/10 11:16:04;;;;;;;7.00;4.22;;;;;;;;;;5094285;28;20016;-70
2021/07/10 11:18:47;;;;;;;8.00;3.97;;;;;;;;;;5096040;28;20028;-70
2021/07/10 11:21:47;;;;;;;8.30;4.20;;;;;;;;;;5095956;28;20016;-70
2021/07/10 11:24:20;;;;;;;6.53;3.85;;;;;;;;;;5095618;28;20027;-69
2021/07/10 11:26:55;;;;;;;6.65;3.70;;;;;;;;;;5095521;28;20408;-69
2021/07/10 11:29:37;;;;;;;7.70;4.32;;;;;;;;;;5095399;28;20016;-70
2021/07/10 11:32:03;;;;;;;;;;;;;;;;;;5096251;28;20044;-69
2021/07/10 11:34:36;;;;;;;9.32;3.95;;;;;;;;;;5094644;28;19935;-69
2021/07/10 11:37:13;;;;;;;6.30;3.25;;;;;;;;;;5095463;28;20024;-70
2021/07/10 11:39:40;;;;;;;7.03;4.50;;;;;;;;;;5095630;28;20028;-70
2021/07/10 11:42:18;;;;;;;6.53;3.75;;;;;;;;;;5095720;28;20514;-70
2021/07/10 11:44:46;;;;;;;6.15;4.30;;;;;;;;;;5093754;28;20066;-69
2021/07/10 11:47:12;;;;;;;6.45;3.97;;;;;;;;;;5094135;28;20028;-69
2021/07/10 11:49:39;;;;;;;5.15;3.50;;;;;;;;;;5095410;28;20024;-70
2021/07/10 11:52:09;;;;;;;8.70;4.82;;;;;;;;;;5093647;28;20063;-70
2021/07/10 11:54:37;;;;;;;4.60;3.88;;;;;;;;;;5095541;28;20537;-70
2021/07/10 11:57:03;;;;;;;6.22;3.72;;;;;;;;;;5094135;28;20453;-70
2021/07/10 11:59:30;;;;;;;6.13;3.95;;;;;;;;;;5094822;28;20027;-69
2021/07/10 12:01:56;;;;;;;7.63;3.75;;;;;;;;;;5095143;28;20427;-69
2021/07/10 12:04:22;;;;;;;7.68;3.92;;;;;;;;;;5094781;28;20070;-69
2021/07/10 12:06:48;;;;;;;6.93;3.90;;;;;;;;;;5095042;28;20031;-69
2021/07/10 12:09:14;;;;;;;6.45;3.53;;;;;;;;;;5095043;28;20024;-69
2021/07/10 12:11:40;;;;;;;5.63;3.80;;;;;;;;;;5093192;28;20061;-69
2021/07/10 12:14:07;;;;;;;7.80;4.18;;;;;;;;;;5095135;28;20024;-70
2021/07/10 12:16:34;;;;;;;5.97;4.15;;;;;;;;;;5095186;28;20030;-70
2021/07/10 12:19:01;;;;;;;6.97;3.83;;;;;;;;;;5094555;28;20080;-70
2021/07/10 12:21:27;;;;;;;5.82;3.63;;;;;;;;;;5094791;28;20028;-70
2021/07/10 12:23:55;;;;;;;7.53;3.83;;;;;;;;;;5094792;28;20525;-70
2021/07/10 12:26:22;;;;;;;5.88;3.70;;;;;;;;;;5094050;28;20058;-70
2021/07/10 12:28:54;;;;;;;6.53;3.60;;;;;;;;;;5094743;28;20028;-70
2021/07/10 12:31:36;;;;;;;6.60;3.50;;;;;;;;;;5094572;28;20099;-70
2021/07/10 12:34:06;;;;;;;7.10;4.47;;;;;;;;;;5094328;28;20056;-70
2021/07/10 12:36:33;;;;;;;7.25;4.13;;;;;;;;;;5094669;28;20085;-70
2021/07/10 12:39:06;;;;;;;6.95;4.22;;;;;;;;;;5094466;28;20028;-70
2021/07/10 12:41:38;;;;;;;7.85;3.90;;;;;;;;;;5094348;28;20437;-70
2021/07/10 12:44:12;;;;;;;8.48;4.18;;;;;;;;;;5094097;28;20082;-69
2021/07/10 12:46:45;;;;;;;12.65;5.40;;;;;;;;;;5093665;28;20031;-69
2021/07/10 12:49:12;;;;;;;14.43;5.30;;;;;;;;;;5094250;28;20384;-69
2021/07/10 12:51:38;;;;;;;9.00;4.72;;;;;;;;;;5094236;28;20482;-70
2021/07/10 12:54:09;;;;;;;10.10;5.03;;;;;;;;;;5092626;28;20487;-70
2021/07/10 12:56:44;;;;;;;27.38;6.38;;;;;;;;;;5092898;28;20066;-70
2021/07/10 12:59:19;;;;;;;23.25;5.28;;;;;;;;;;5094083;28;20021;-69
2021/07/10 13:01:49;;;;;;;10.43;3.97;;;;;;;;;;5093590;28;20472;-69
2021/07/10 13:04:15;;;;;;;7.25;3.55;;;;;;;;;;5092617;28;20068;-69
2021/07/10 13:06:45;;;;;;;8.40;3.78;;;;;;;;;;5093870;28;20052;-69
2021/07/10 13:09:11;;;;;;;8.63;4.65;;;;;;;;;;5092166;28;20373;-69
2021/07/10 13:11:48;;;;;;;10.95;4.60;;;;;;;;;;5093822;28;20016;-69
2021/07/10 13:14:21;;;;;;;8.27;4.78;;;;;;;;;;5093940;28;20035;-70
2021/07/10 13:16:47;;;;;;;8.90;4.90;;;;;;;;;;5093338;28;20416;-70
2021/07/10 13:19:14;;;;;;;8.13;5.38;;;;;;;;;;5092388;28;20023;-70
2021/07/10 13:21:40;;;;;;;8.07;5.18;;;;;;;;;;5092029;28;20035;-70
2021/07/10 13:24:07;;;;;;;7.88;5.35;;;;;;;;;;5093644;28;20380;-70
2021/07/10 13:26:53;;;;;;;9.02;4.47;;;;;;;;;;5093305;28;20036;-70
2021/07/10 13:29:21;;;;;;;7.80;4.68;;;;;;;;;;5093145;28;20027;-70
2021/07/10 13:31:59;;;;;;;9.60;4.97;;;;;;;;;;5093681;28;20036;-69
2021/07/10 13:34:29;;;;;;;8.45;5.65;;;;;;;;;;5093615;28;20427;-70
2021/07/10 13:36:56;;;;;;;8.48;4.97;;;;;;;;;;5092435;28;20502;-69
2021/07/10 13:39:24;;;;;;;7.63;5.03;;;;;;;;;;5093464;28;20503;-70
2021/07/10 13:41:51;;;;;;;9.27;5.88;;;;;;;;;;5093409;28;20020;-69
2021/07/10 13:44:20;;;;;;;9.18;5.50;;;;;;;;;;5091688;28;20404;-71
2021/07/10 13:47:00;;;;;;;7.10;4.88;;;;;;;;;;5093225;28;20412;-69
2021/07/10 13:49:28;;;;;;;7.47;5.07;;;;;;;;;;5093334;28;20117;-70
2021/07/10 13:51:59;;;;;;;11.13;5.82;;;;;;;;;;5091793;28;20503;-70
2021/07/10 13:54:38;;;;;;;9.90;5.88;;;;;;;;;;5093149;28;20492;-71
2021/07/10 13:57:08;;;;;;;11.15;5.85;;;;;;;;;;5092648;28;20088;-70
2021/07/10 13:59:37;;;;;;;10.88;5.78;;;;;;;;;;5093015;28;20480;-70
2021/07/10 14:02:04;;;;;;;11.25;5.30;;;;;;;;;;5092004;28;20031;-70
2021/07/10 14:04:31;;;;;;;9.98;5.63;;;;;;;;;;5091303;28;20020;-70
2021/07/10 14:06:57;;;;;;;8.30;5.80;;;;;;;;;;5092871;28;20043;-69
2021/07/10 14:09:23;;;;;;;8.85;5.47;;;;;;;;;;5093100;28;20038;-69
2021/07/10 14:11:49;;;;;;;8.75;5.10;;;;;;;;;;5092822;28;20031;-69
2021/07/10 14:14:15;;;;;;;9.02;4.70;;;;;;;;;;5091693;28;20645;-69
2021/07/10 14:16:41;;;;;;;9.05;5.93;;;;;;;;;;5092777;28;20020;-70
2021/07/10 14:19:08;;;;;;;13.10;6.78;;;;;;;;;;5092392;28;20024;-70
2021/07/10 14:21:34;;;;;;;13.13;6.78;;;;;;;;;;5092728;28;20493;-70
2021/07/10 14:24:01;;;;;;;10.48;6.78;;;;;;;;;;5092694;28;20024;-70
2021/07/10 14:26:27;;;;;;;10.00;5.50;;;;;;;;;;5092043;28;20050;-70
2021/07/10 14:28:53;;;;;;;9.65;6.05;;;;;;;;;;5091494;28;20032;-70
2021/07/10 14:31:19;;;;;;;9.90;5.80;;;;;;;;;;5092839;28;20026;-71
2021/07/10 14:33:45;;;;;;;8.93;6.35;;;;;;;;;;5092409;28;20388;-70
2021/07/10 14:36:11;;;;;;;11.48;6.65;;;;;;;;;;5092683;28;20051;-71
2021/07/10 14:38:38;;;;;;;11.45;6.35;;;;;;;;;;5092613;28;20024;-70
2021/07/10 14:41:05;;;;;;;12.40;6.22;;;;;;;;;;5092171;28;20477;-69
2021/07/10 14:43:31;;;;;;;10.27;5.55;;;;;;;;;;5092624;28;20416;-69
2021/07/10 14:45:57;;;;;;;11.75;7.35;;;;;;;;;;5092156;28;20055;-69
2021/07/10 14:48:24;;;;;;;9.93;5.82;;;;;;;;;;5093105;28;20495;-69